Time;durP1;ratioP1;P1;durP2;ratioP2;P2;SDS_P1;SDS_P2;PMS_P1;PMS_P2;Temp;Humidity;BMP_temperature;BMP_pressure;BME280_temperature;BME280_humidity;BME280_pressure;Samples;Min_cycle;Max_cycle;Signal;HPM_P1;HPM_P2
2023/04/11 00:00:11;;;;;;;59.95;33.50;;;10.80;74.60;;;;;;4999399;28;20054;-85
2023/04/11 00:02:39;;;;;;;64.55;33.17;;;10.80;75.00;;;;;;5014220;28;20030;-84
2023/04/11 00:05:06;;;;;;;63.13;33.53;;;10.70;75.40;;;;;;5017623;28;20021;-83
2023/04/11 00:07:32;;;;;;;65.60;35.92;;;10.60;75.80;;;;;;5023745;28;20043;-84
2023/04/11 00:09:58;;;;;;;69.82;36.45;;;10.60;76.00;;;;;;5037300;28;20041;-83
2023/04/11 00:12:24;;;;;;;58.75;36.60;;;10.60;76.10;;;;;;5046905;28;20018;-84
2023/04/11 00:14:52;;;;;;;70.10;37.00;;;10.60;76.10;;;;;;5021551;28;20045;-82
2023/04/11 00:17:18;;;;;;;46.72;34.25;;;10.60;76.10;;;;;;5021726;28;20050;-83
2023/04/11 00:19:45;;;;;;;66.85;36.33;;;10.60;76.10;;;;;;5025125;28;20484;-82
2023/04/11 00:22:16;;;;;;;67.75;35.78;;;10.60;76.20;;;;;;5019452;28;20029;-84
2023/04/11 00:24:43;;;;;;;68.78;37.03;;;10.60;76.20;;;;;;4999799;28;20026;-84
2023/04/11 00:27:08;;;;;;;62.97;38.17;;;10.60;76.20;;;;;;5014839;28;20022;-84
2023/04/11 00:29:35;;;;;;;58.28;34.47;;;10.60;76.20;;;;;;5004033;28;20053;-83
2023/04/11 00:32:02;;;;;;;56.95;38.00;;;10.60;76.00;;;;;;5012244;28;20022;-85
2023/04/11 00:34:28;;;;;;;58.13;35.10;;;10.50;76.00;;;;;;5005553;28;20503;-84
2023/04/11 00:36:54;;;;;;;58.60;35.10;;;10.50;76.00;;;;;;5005070;28;20464;-85
2023/04/11 00:39:21;;;;;;;48.58;33.83;;;10.50;76.60;;;;;;5016932;28;20029;-85
2023/04/11 00:41:48;;;;;;;52.65;34.75;;;10.50;75.90;;;;;;5015554;28;20018;-84
2023/04/11 00:44:14;;;;;;;63.17;35.83;;;10.50;75.70;;;;;;5003879;28;20053;-82
2023/04/11 00:46:42;;;;;;;60.67;35.42;;;10.60;75.70;;;;;;5013456;28;20026;-84
2023/04/11 00:49:09;;;;;;;59.60;33.88;;;10.60;75.60;;;;;;4998637;28;20503;-83
2023/04/11 00:51:35;;;;;;;54.03;31.87;;;10.60;75.50;;;;;;4998256;28;20503;-83
2023/04/11 00:54:01;;;;;;;48.60;30.08;;;10.60;74.90;;;;;;5010080;28;20033;-84
2023/04/11 00:56:30;;;;;;;49.05;33.53;;;10.60;74.50;;;;;;5020774;28;20068;-83
2023/04/11 00:58:56;;;;;;;45.45;29.80;;;10.50;74.50;;;;;;4989054;28;20022;-84
2023/04/11 01:01:22;;;;;;;37.83;28.50;;;10.50;74.40;;;;;;5000581;28;20048;-84
2023/04/11 01:03:48;;;;;;;40.95;29.83;;;10.60;74.10;;;;;;5019422;28;20544;-83
2023/04/11 01:06:17;;;;;;;41.55;30.27;;;10.50;73.70;;;;;;4999328;28;20447;-82
2023/04/11 01:08:45;;;;;;;40.08;28.15;;;10.50;73.70;;;;;;5005369;28;20022;-84
2023/04/11 01:11:11;;;;;;;;;;;10.50;74.20;;;;;;4987194;28;20094;-83
2023/04/11 01:13:40;;;;;;;37.30;27.08;;;10.50;73.40;;;;;;5011324;28;19913;-83
2023/04/11 01:16:07;;;;;;;42.05;26.88;;;10.50;73.50;;;;;;5002763;28;20050;-83
2023/04/11 01:18:33;;;;;;;43.13;30.20;;;10.50;73.30;;;;;;4993357;28;20077;-82
2023/04/11 01:20:59;;;;;;;36.80;27.27;;;10.50;73.10;;;;;;5009095;28;20272;-82
2023/04/11 01:23:26;;;;;;;38.97;27.33;;;10.50;73.00;;;;;;5012721;28;20033;-84
2023/04/11 01:25:52;;;;;;;41.03;27.83;;;10.60;72.90;;;;;;5014600;28;20022;-85
2023/04/11 01:28:18;;;;;;;38.22;27.77;;;10.60;72.80;;;;;;5002163;28;20287;-84
2023/04/11 01:30:45;;;;;;;36.17;24.65;;;10.60;72.50;;;;;;4988148;28;20052;-84
2023/04/11 01:33:12;;;;;;;35.03;25.40;;;10.50;72.20;;;;;;5005811;28;20034;-85
2023/04/11 01:35:38;;;;;;;37.45;26.48;;;10.50;72.40;;;;;;5008100;28;20026;-86
2023/04/11 01:38:05;;;;;;;36.42;25.67;;;10.40;72.50;;;;;;5001056;28;20038;-85
2023/04/11 01:40:32;;;;;;;36.47;25.55;;;10.40;72.60;;;;;;5010352;28;20054;-85
2023/04/11 01:42:58;;;;;;;37.22;26.27;;;10.40;73.20;;;;;;5005226;28;20015;-84
2023/04/11 01:45:28;;;;;;;35.53;26.77;;;10.40;72.70;;;;;;5008846;28;20057;-86
2023/04/11 01:47:55;;;;;;;38.03;27.45;;;10.40;72.70;;;;;;5020087;28;20072;-85
2023/04/11 01:50:22;;;;;;;35.88;27.38;;;10.40;72.70;;;;;;5009227;28;20052;-86
2023/04/11 01:52:48;;;;;;;44.58;29.63;;;10.40;72.80;;;;;;5017155;28;20041;-87
2023/04/11 01:55:15;;;;;;;46.85;28.60;;;10.50;72.80;;;;;;5006057;28;20021;-87
2023/04/11 01:57:41;;;;;;;34.58;27.08;;;10.50;72.80;;;;;;5019200;28;20050;-85
2023/04/11 02:00:09;;;;;;;45.15;28.52;;;10.50;72.90;;;;;;5018560;28;20037;-87
2023/04/11 02:02:36;;;;;;;36.35;30.52;;;10.40;73.00;;;;;;5025354;28;20027;-87
2023/04/11 02:05:03;;;;;;;39.38;28.38;;;10.40;73.10;;;;;;5019992;28;20021;-86
2023/04/11 02:07:29;;;;;;;45.57;29.63;;;10.40;73.20;;;;;;5012006;28;20014;-86
2023/04/11 02:09:56;;;;;;;42.47;29.08;;;10.40;73.30;;;;;;5025263;28;20012;-86
2023/04/11 02:12:22;;;;;;;42.30;30.40;;;10.50;73.50;;;;;;5017594;28;20006;-87
2023/04/11 02:14:48;;;;;;;39.78;28.58;;;10.50;73.60;;;;;;5023761;28;20056;-86
2023/04/11 02:17:16;;;;;;;36.80;27.02;;;10.50;73.80;;;;;;5030599;28;20018;-86
2023/04/11 02:19:44;;;;;;;;;;;10.50;74.30;;;;;;5017524;28;20026;-86
2023/04/11 02:22:14;;;;;;;31.98;24.80;;;10.50;73.60;;;;;;5020932;28;19909;-85
2023/04/11 02:24:40;;;;;;;39.15;25.13;;;10.40;74.70;;;;;;4992280;28;20120;-86
2023/04/11 02:27:07;;;;;;;44.60;26.70;;;10.40;75.30;;;;;;4991628;28;20017;-86
2023/04/11 02:29:33;;;;;;;39.90;25.70;;;10.40;75.80;;;;;;5018092;28;20029;-86
2023/04/11 02:31:59;;;;;;;31.05;26.52;;;10.30;76.10;;;;;;5014163;28;20145;-85
2023/04/11 02:34:25;;;;;;;38.70;26.08;;;10.30;76.50;;;;;;4988763;28;20029;-85
2023/04/11 02:36:52;;;;;;;32.75;25.88;;;10.30;76.60;;;;;;5027598;28;20025;-85
2023/04/11 02:39:24;;;;;;;36.00;26.73;;;10.30;76.80;;;;;;5025070;28;20636;-85
2023/04/11 02:41:50;;;;;;;36.58;25.50;;;10.30;77.30;;;;;;5008777;28;20033;-86
2023/04/11 02:44:17;;;;;;;39.72;24.63;;;10.30;77.80;;;;;;5002473;28;20034;-84
2023/04/11 02:46:43;;;;;;;33.75;25.63;;;10.30;78.50;;;;;;5002679;28;20027;-87
2023/04/11 02:49:09;;;;;;;40.38;26.88;;;10.10;79.30;;;;;;5008322;28;20025;-86
2023/04/11 02:51:35;;;;;;;39.80;26.38;;;;;;;;;;5001223;28;20108;-85
2023/04/11 02:54:01;;;;;;;30.25;24.83;;;9.80;81.10;;;;;;5010164;28;20033;-85
2023/04/11 02:56:30;;;;;;;26.75;22.23;;;9.70;82.50;;;;;;5009982;28;20407;-85
2023/04/11 02:58:56;;;;;;;30.27;22.63;;;9.60;83.60;;;;;;4977225;28;20049;-84
2023/04/11 03:01:23;;;;;;;31.00;24.52;;;9.40;84.90;;;;;;4998192;28;20423;-87
2023/04/11 03:03:49;;;;;;;38.03;26.27;;;9.30;86.10;;;;;;4980981;28;20069;-86
2023/04/11 03:06:15;;;;;;;34.85;27.30;;;9.20;87.20;;;;;;5000236;28;20026;-87
2023/04/11 03:08:41;;;;;;;30.00;23.98;;;9.20;88.10;;;;;;5005777;28;20061;-87
2023/04/11 03:11:07;;;;;;;42.80;29.08;;;9.20;88.20;;;;;;4999875;28;20101;-85
2023/04/11 03:13:33;;;;;;;35.72;27.35;;;9.20;88.20;;;;;;4982764;28;20034;-86
2023/04/11 03:15:59;;;;;;;34.83;26.85;;;9.20;88.90;;;;;;5008013;28;20037;-86
2023/04/11 03:18:24;;;;;;;30.52;24.83;;;9.10;90.10;;;;;;4997956;28;20034;-85
2023/04/11 03:20:51;;;;;;;39.20;27.65;;;9.10;90.20;;;;;;5000461;28;20029;-85
2023/04/11 03:23:17;;;;;;;35.30;26.67;;;9.10;90.10;;;;;;5017411;28;20029;-85
2023/04/11 03:25:46;;;;;;;41.67;27.35;;;9.10;90.20;;;;;;5005966;28;20499;-85
2023/04/11 03:28:13;;;;;;;34.40;27.05;;;9.10;90.60;;;;;;4998095;28;20030;-85
2023/04/11 03:30:41;;;;;;;44.23;28.33;;;9.10;90.50;;;;;;5000098;28;20049;-85
2023/04/11 03:33:07;;;;;;;;;;;9.20;90.60;;;;;;5003258;28;20295;-87
2023/04/11 03:35:33;;;;;;;32.53;24.75;;;9.20;90.30;;;;;;5004674;28;19984;-87
2023/04/11 03:37:59;;;;;;;34.65;26.02;;;9.20;90.60;;;;;;4986731;28;20028;-87
2023/04/11 03:40:25;;;;;;;31.20;24.83;;;9.30;90.80;;;;;;5003594;28;20103;-88
2023/04/11 03:42:51;;;;;;;28.50;24.70;;;9.30;91.10;;;;;;5001415;28;20101;-86
2023/04/11 03:45:17;;;;;;;34.63;23.95;;;9.40;91.10;;;;;;5009290;28;20020;-84
2023/04/11 03:47:43;;;;;;;30.63;24.08;;;9.40;91.10;;;;;;5021810;28;20018;-84
2023/04/11 03:50:09;;;;;;;31.88;23.48;;;9.50;91.10;;;;;;5008965;28;20022;-85
2023/04/11 03:52:36;;;;;;;32.65;21.98;;;9.50;91.20;;;;;;5027494;28;20108;-84
2023/04/11 03:55:02;;;;;;;33.25;22.55;;;9.60;91.10;;;;;;5017077;28;20041;-83
2023/04/11 03:57:28;;;;;;;28.05;21.42;;;9.70;91.00;;;;;;5013812;28;20030;-84
2023/04/11 03:59:57;;;;;;;30.85;22.70;;;9.80;91.00;;;;;;5017767;28;20033;-85
2023/04/11 04:02:24;;;;;;;25.05;20.52;;;9.90;90.90;;;;;;4996334;28;20096;-84
2023/04/11 04:04:54;;;;;;;27.52;21.27;;;10.00;90.70;;;;;;4981421;28;20061;-83
2023/04/11 04:07:23;;;;;;;25.50;19.80;;;10.10;90.60;;;;;;4998029;28;20046;-83
2023/04/11 04:09:49;;;;;;;20.98;17.20;;;10.20;90.50;;;;;;4979689;28;20417;-81
2023/04/11 04:12:16;;;;;;;20.27;14.50;;;10.30;89.90;;;;;;4998120;28;20073;-82
2023/04/11 04:14:43;;;;;;;20.95;17.35;;;10.40;88.40;;;;;;5004544;28;20026;-83
2023/04/11 04:17:10;;;;;;;19.97;14.83;;;10.50;87.60;;;;;;4980179;28;20030;-84
2023/04/11 04:19:36;;;;;;;17.38;15.60;;;10.50;86.80;;;;;;5001867;28;20018;-83
2023/04/11 04:22:02;;;;;;;19.75;15.88;;;10.60;86.20;;;;;;4986141;28;20030;-82
2023/04/11 04:24:28;;;;;;;18.77;16.23;;;10.70;86.10;;;;;;4984709;28;20027;-83
2023/04/11 04:26:59;;;;;;;19.23;16.27;;;10.80;85.70;;;;;;4984957;28;20030;-83
2023/04/11 04:29:32;;;;;;;21.02;16.00;;;10.90;84.60;;;;;;4987662;28;20388;-83
2023/04/11 04:32:00;;;;;;;22.02;17.70;;;11.00;84.50;;;;;;4999057;28;20037;-83
2023/04/11 04:34:28;;;;;;;23.38;16.65;;;11.00;84.10;;;;;;4992475;28;20029;-84
2023/04/11 04:36:58;;;;;;;;;;;11.10;83.40;;;;;;5001777;28;20021;-82
2023/04/11 04:39:24;;;;;;;20.00;16.05;;;11.10;83.30;;;;;;4995038;28;19910;-83
2023/04/11 04:41:57;;;;;;;19.48;17.38;;;11.10;82.60;;;;;;4987066;28;20045;-85
2023/04/11 04:44:23;;;;;;;20.20;16.88;;;11.20;81.70;;;;;;5002182;28;20081;-85
2023/04/11 04:46:56;;;;;;;22.10;16.63;;;11.40;81.90;;;;;;4998584;28;20054;-83
2023/04/11 04:49:22;;;;;;;20.48;17.02;;;;;;;;;;4980692;28;20084;-86
2023/04/11 04:51:49;;;;;;;21.98;16.45;;;;;;;;;;4991769;28;20073;-86
2023/04/11 04:54:18;;;;;;;20.58;16.95;;;11.60;78.70;;;;;;4995054;28;20030;-87
2023/04/11 04:56:44;;;;;;;21.80;17.42;;;11.60;78.80;;;;;;4998257;28;20033;-86
2023/04/11 04:59:14;;;;;;;21.20;18.00;;;11.70;79.10;;;;;;4994918;28;20056;-86
2023/04/11 05:01:40;;;;;;;21.90;18.67;;;11.90;78.70;;;;;;4982450;28;20046;-84
2023/04/11 05:04:06;;;;;;;19.50;17.40;;;12.00;78.40;;;;;;5003961;28;20034;-84
2023/04/11 05:06:32;;;;;;;22.30;19.90;;;12.10;78.00;;;;;;4982422;28;20498;-85
2023/04/11 05:08:59;;;;;;;20.20;18.05;;;12.30;78.00;;;;;;5002015;28;20029;-84
2023/04/11 05:11:26;;;;;;;21.65;17.48;;;12.40;76.60;;;;;;5022903;28;20077;-83
2023/04/11 05:13:52;;;;;;;30.40;20.63;;;12.50;76.30;;;;;;5014289;28;20038;-82
2023/04/11 05:16:21;;;;;;;22.23;19.60;;;12.50;76.20;;;;;;5019267;28;20749;-83
2023/04/11 05:18:47;;;;;;;27.35;20.52;;;12.40;76.00;;;;;;5008611;28;20053;-83
2023/04/11 05:21:13;;;;;;;25.45;19.67;;;12.50;76.60;;;;;;5005363;28;20025;-86
2023/04/11 05:23:40;;;;;;;26.15;19.60;;;12.70;76.70;;;;;;5023386;28;20022;-85
2023/04/11 05:26:07;;;;;;;22.60;20.17;;;12.90;76.10;;;;;;5017464;28;20466;-86
2023/04/11 05:28:33;;;;;;;24.02;20.25;;;13.20;75.00;;;;;;5010755;28;20417;-83
2023/04/11 05:30:59;;;;;;;24.70;18.95;;;13.10;74.60;;;;;;5010927;28;20037;-83
2023/04/11 05:33:26;;;;;;;23.27;18.80;;;13.30;74.80;;;;;;5016618;28;20483;-84
2023/04/11 05:35:52;;;;;;;20.90;18.70;;;13.50;73.60;;;;;;5002909;28;20507;-81
2023/04/11 05:38:18;;;;;;;21.00;18.80;;;13.50;72.20;;;;;;5008343;28;20025;-83
2023/04/11 05:40:44;;;;;;;23.42;19.77;;;13.50;72.50;;;;;;5014835;28;20044;-83
2023/04/11 05:43:13;;;;;;;26.33;18.85;;;13.60;72.30;;;;;;5017964;28;20026;-84
2023/04/11 05:45:40;;;;;;;26.65;19.17;;;13.70;71.30;;;;;;5024043;28;20029;-82
2023/04/11 05:48:06;;;;;;;21.67;19.40;;;13.70;70.00;;;;;;5017490;28;20026;-84
2023/04/11 05:50:33;;;;;;;27.02;20.25;;;13.60;70.00;;;;;;5030901;28;20643;-82
2023/04/11 05:52:59;;;;;;;26.85;20.52;;;13.70;70.00;;;;;;5006251;28;20094;-83
2023/04/11 05:55:25;;;;;;;26.83;20.05;;;14.00;70.40;;;;;;5020685;28;20101;-82
2023/04/11 05:57:51;;;;;;;22.83;20.42;;;15.00;69.80;;;;;;5015656;28;20044;-86
2023/04/11 06:00:19;;;;;;;23.43;20.87;;;;;;;;;;5004128;28;20041;-85
2023/04/11 06:02:47;;;;;;;31.67;24.73;;;16.70;63.30;;;;;;4988609;28;20030;-86
2023/04/11 06:05:16;;;;;;;27.13;20.27;;;17.10;62.90;;;;;;5019079;28;20061;-80
2023/04/11 06:07:42;;;;;;;;;;;;;;;;;;5006317;28;20030;-82
2023/04/11 06:10:09;;;;;;;31.98;24.02;;;19.40;61.60;;;;;;5007165;28;19941;-81
2023/04/11 06:12:35;;;;;;;29.15;21.35;;;20.40;55.70;;;;;;5009830;28;20026;-81
2023/04/11 06:15:02;;;;;;;23.85;21.20;;;21.10;53.00;;;;;;4978792;28;20034;-81
2023/04/11 06:17:28;;;;;;;28.27;20.48;;;21.20;52.20;;;;;;4998332;28;20037;-81
2023/04/11 06:19:53;;;;;;;25.98;19.95;;;21.50;51.50;;;;;;5000590;28;20030;-80
2023/04/11 06:22:19;;;;;;;24.38;18.48;;;21.80;49.20;;;;;;5003727;28;20388;-81
2023/04/11 06:24:46;;;;;;;23.40;19.48;;;22.20;49.00;;;;;;5009164;28;20033;-82
2023/04/11 06:27:12;;;;;;;29.98;19.10;;;23.20;47.90;;;;;;4994884;28;20399;-82
2023/04/11 06:29:40;;;;;;;27.35;19.65;;;23.80;46.00;;;;;;5013304;28;20029;-81
2023/04/11 06:32:06;;;;;;;28.45;19.80;;;23.30;44.30;;;;;;4994277;28;20079;-81
2023/04/11 06:34:33;;;;;;;32.88;20.52;;;22.90;45.50;;;;;;4996069;28;20068;-80
2023/04/11 06:36:59;;;;;;;24.60;19.87;;;22.80;45.30;;;;;;5010096;28;20029;-81
2023/04/11 06:39:25;;;;;;;19.60;17.50;;;22.80;45.50;;;;;;4999876;28;20029;-81
2023/04/11 06:41:52;;;;;;;20.57;18.47;;;22.90;44.60;;;;;;4997368;28;20014;-81
2023/04/11 06:44:17;;;;;;;20.05;17.50;;;22.40;44.60;;;;;;4998019;28;20359;-82
2023/04/11 06:46:43;;;;;;;22.10;18.55;;;22.60;44.80;;;;;;5009549;28;20077;-80
2023/04/11 06:49:10;;;;;;;19.90;17.83;;;23.30;44.50;;;;;;5006176;28;20034;-81
2023/04/11 06:51:39;;;;;;;25.65;19.85;;;23.40;43.50;;;;;;4981750;28;20033;-80
2023/04/11 06:54:05;;;;;;;23.45;20.90;;;22.80;43.40;;;;;;5001269;28;20515;-82
2023/04/11 06:56:32;;;;;;;20.92;18.42;;;22.70;44.30;;;;;;5001942;28;20128;-81
2023/04/11 06:58:57;;;;;;;22.52;19.27;;;22.10;44.00;;;;;;5034927;28;20026;-80
2023/04/11 07:01:29;;;;;;;23.10;20.33;;;22.40;45.40;;;;;;5017213;28;20038;-80
2023/04/11 07:03:55;;;;;;;29.63;21.30;;;22.80;44.20;;;;;;5000395;28;20502;-81
2023/04/11 07:06:22;;;;;;;26.20;22.17;;;22.60;44.30;;;;;;5009054;28;20423;-81
2023/04/11 07:08:47;;;;;;;29.83;23.70;;;22.10;44.60;;;;;;5008831;28;20117;-81
2023/04/11 07:11:13;;;;;;;30.40;22.65;;;22.20;44.90;;;;;;5023390;28;20029;-80
2023/04/11 07:13:39;;;;;;;25.25;22.17;;;23.10;43.80;;;;;;5024069;28;20034;-82
2023/04/11 07:16:06;;;;;;;29.08;22.92;;;24.70;43.00;;;;;;5024447;28;20022;-79
2023/04/11 07:18:32;;;;;;;27.17;22.08;;;25.50;41.20;;;;;;4984377;28;20036;-82
2023/04/11 07:20:58;;;;;;;33.03;23.15;;;26.20;39.50;;;;;;5016078;28;20443;-81
2023/04/11 07:23:24;;;;;;;28.23;23.77;;;26.50;39.10;;;;;;5014913;28;20106;-81
2023/04/11 07:25:49;;;;;;;27.65;22.55;;;27.10;38.40;;;;;;5018942;28;20022;-81
2023/04/11 07:28:15;;;;;;;29.42;22.20;;;27.40;37.70;;;;;;5017514;28;20053;-80
2023/04/11 07:30:41;;;;;;;28.98;22.88;;;27.10;37.50;;;;;;5016517;28;20037;-81
2023/04/11 07:33:07;;;;;;;34.80;24.05;;;27.30;37.30;;;;;;5027781;28;20051;-80
2023/04/11 07:35:33;;;;;;;32.08;23.98;;;27.70;37.10;;;;;;5024737;28;20116;-82
2023/04/11 07:38:03;;;;;;;33.00;25.33;;;28.10;37.00;;;;;;5022782;28;20479;-81
2023/04/11 07:40:30;;;;;;;29.90;24.85;;;28.10;36.40;;;;;;5017075;28;20286;-81
2023/04/11 07:42:55;;;;;;;33.40;25.58;;;28.00;36.00;;;;;;5024427;28;20030;-80
2023/04/11 07:45:21;;;;;;;30.38;25.40;;;27.30;36.70;;;;;;5020521;28;20030;-83
2023/04/11 07:47:47;;;;;;;29.52;23.48;;;26.50;36.50;;;;;;5032522;28;20036;-81
2023/04/11 07:50:13;;;;;;;33.22;25.60;;;25.90;37.40;;;;;;5032763;28;20022;-80
2023/04/11 07:52:39;;;;;;;35.03;27.67;;;26.30;37.80;;;;;;5028760;28;20024;-82
2023/04/11 07:55:05;;;;;;;36.50;26.08;;;27.20;37.20;;;;;;5003782;28;20034;-81
2023/04/11 07:57:31;;;;;;;29.93;24.80;;;28.10;36.40;;;;;;5022109;28;20021;-81
2023/04/11 08:00:01;;;;;;;34.70;23.33;;;28.70;35.50;;;;;;5017625;28;20034;-82
2023/04/11 08:02:27;;;;;;;30.50;22.90;;;28.40;35.30;;;;;;5023268;28;20050;-82
2023/04/11 08:04:53;;;;;;;22.55;20.10;;;28.40;34.90;;;;;;5021603;28;20026;-80
2023/04/11 08:07:19;;;;;;;24.33;19.40;;;28.10;33.60;;;;;;5020110;28;20022;-82
2023/04/11 08:09:45;;;;;;;25.15;20.75;;;27.60;34.80;;;;;;5020215;28;20545;-83
2023/04/11 08:12:10;;;;;;;23.25;19.77;;;27.80;34.20;;;;;;5002873;28;20080;-82
2023/04/11 08:14:36;;;;;;;21.02;18.90;;;28.30;34.30;;;;;;5019093;28;20045;-82
2023/04/11 08:17:02;;;;;;;22.52;19.42;;;27.40;33.20;;;;;;5003564;28;20030;-83
2023/04/11 08:19:30;;;;;;;23.63;19.70;;;;;;;;;;5026108;28;20018;-83
2023/04/11 08:21:56;;;;;;;26.58;19.88;;;26.10;35.00;;;;;;5024878;28;20072;-82
2023/04/11 08:24:21;;;;;;;22.63;19.90;;;26.70;34.80;;;;;;5022962;28;20013;-82
2023/04/11 08:26:47;;;;;;;21.52;18.55;;;26.70;34.20;;;;;;5025603;28;20262;-81
2023/04/11 08:29:14;;;;;;;21.42;19.02;;;27.30;34.80;;;;;;5016026;28;20570;-81
2023/04/11 08:31:43;;;;;;;22.73;19.58;;;28.40;33.60;;;;;;5019143;28;20429;-82
2023/04/11 08:34:10;;;;;;;23.25;19.02;;;30.00;32.70;;;;;;5018047;28;20049;-82
2023/04/11 08:36:35;;;;;;;23.55;17.40;;;29.90;31.20;;;;;;4982726;28;20014;-81
2023/04/11 08:39:02;;;;;;;20.77;17.20;;;29.50;31.20;;;;;;5002832;28;20034;-81
2023/04/11 08:41:32;;;;;;;23.90;18.50;;;29.60;31.10;;;;;;5031620;28;20026;-82
2023/04/11 08:43:58;;;;;;;23.63;17.48;;;29.90;31.50;;;;;;5032769;28;20105;-80
2023/04/11 08:46:24;;;;;;;22.93;20.43;;;29.00;31.30;;;;;;5008732;28;20382;-81
2023/04/11 08:48:50;;;;;;;19.83;17.73;;;28.50;32.00;;;;;;5023457;28;20093;-82
2023/04/11 08:51:25;;;;;;;19.15;16.63;;;27.20;31.50;;;;;;5014991;28;20042;-82
2023/04/11 08:53:53;;;;;;;21.95;17.30;;;26.10;32.60;;;;;;5023206;28;20033;-81
2023/04/11 08:56:19;;;;;;;20.50;17.38;;;25.50;34.40;;;;;;5026799;28;20018;-83
2023/04/11 08:58:45;;;;;;;25.25;18.63;;;26.30;33.50;;;;;;5017815;28;20053;-81
2023/04/11 09:01:30;;;;;;;29.90;19.37;;;27.40;33.20;;;;;;5018019;28;20041;-81
2023/04/11 09:04:01;;;;;;;23.33;19.13;;;28.40;32.20;;;;;;5017421;28;20026;-83
2023/04/11 09:06:31;;;;;;;20.67;18.55;;;28.50;31.60;;;;;;5019301;28;20026;-82
2023/04/11 09:09:07;;;;;;;25.98;20.67;;;27.80;31.60;;;;;;5019473;28;20022;-81
2023/04/11 09:11:53;;;;;;;22.77;19.73;;;27.80;32.60;;;;;;5021857;28;20025;-80
2023/04/11 09:14:24;;;;;;;21.10;17.23;;;27.60;32.60;;;;;;4998660;28;20036;-82
2023/04/11 09:17:04;;;;;;;20.10;15.68;;;27.90;31.40;;;;;;5015366;28;20109;-83
2023/04/11 09:19:34;;;;;;;18.02;14.63;;;29.00;31.50;;;;;;5006759;28;20022;-80
2023/04/11 09:22:03;;;;;;;20.88;14.40;;;29.50;29.30;;;;;;5002949;28;20022;-83
2023/04/11 09:24:30;;;;;;;23.83;14.70;;;29.00;29.00;;;;;;5024771;28;20355;-81
2023/04/11 09:27:15;;;;;;;16.15;14.20;;;28.20;29.70;;;;;;5024874;28;20093;-81
2023/04/11 09:29:47;;;;;;;23.92;15.02;;;26.60;30.00;;;;;;5009724;28;20033;-82
2023/04/11 09:32:32;;;;;;;18.13;15.35;;;25.80;31.40;;;;;;5025654;28;20052;-81
2023/04/11 09:35:10;;;;;;;17.83;16.00;;;26.40;31.30;;;;;;5024498;28;20086;-81
2023/04/11 09:37:44;;;;;;;18.02;15.65;;;26.20;31.00;;;;;;5022022;28;20018;-81
2023/04/11 09:40:11;;;;;;;19.77;15.70;;;;;;;;;;4997555;28;20041;-82
2023/04/11 09:42:37;;;;;;;16.15;14.55;;;24.40;32.20;;;;;;5019177;28;20029;-82
2023/04/11 09:45:03;;;;;;;18.05;16.17;;;21.70;34.70;;;;;;4998903;28;20030;-82
2023/04/11 09:47:32;;;;;;;19.10;16.47;;;21.60;35.20;;;;;;5014270;28;20025;-82
2023/04/11 09:49:59;;;;;;;20.58;17.13;;;22.00;36.10;;;;;;5001309;28;20026;-81
2023/04/11 09:52:30;;;;;;;18.83;16.80;;;23.70;34.90;;;;;;5016385;28;20025;-80
2023/04/11 09:54:56;;;;;;;18.67;15.70;;;25.50;33.20;;;;;;4998529;28;20084;-81
2023/04/11 09:57:23;;;;;;;17.05;15.57;;;27.10;31.60;;;;;;5021276;28;20029;-79
2023/04/11 09:59:52;;;;;;;20.67;15.07;;;27.00;31.00;;;;;;5019580;28;20030;-80
2023/04/11 10:02:17;;;;;;;21.40;16.33;;;28.70;30.90;;;;;;4984718;28;20046;-82
2023/04/11 10:04:43;;;;;;;16.75;15.05;;;29.40;30.30;;;;;;4997391;28;20030;-80
2023/04/11 10:07:15;;;;;;;16.47;14.27;;;30.40;29.70;;;;;;4986420;28;20105;-81
2023/04/11 10:09:44;;;;;;;16.63;14.88;;;31.10;29.40;;;;;;4993509;28;20026;-81
2023/04/11 10:12:10;;;;;;;18.20;14.88;;;31.60;29.00;;;;;;4988923;28;20022;-80
2023/04/11 10:14:38;;;;;;;18.73;15.40;;;31.00;28.70;;;;;;4998613;28;20117;-83
2023/04/11 10:17:15;;;;;;;16.75;15.07;;;;;;;;;;4996076;28;20023;-80
2023/04/11 10:19:42;;;;;;;18.58;14.30;;;32.10;28.20;;;;;;4998020;28;20030;-83
2023/04/11 10:22:10;;;;;;;19.40;14.35;;;32.00;28.10;;;;;;4996568;28;20022;-84
2023/04/11 10:24:36;;;;;;;17.27;13.75;;;31.20;28.30;;;;;;4995792;28;20373;-83
2023/04/11 10:27:03;;;;;;;17.92;14.40;;;29.30;28.40;;;;;;4995487;28;20088;-81
2023/04/11 10:32:09;;;;;;;19.10;15.13;;;26.20;30.50;;;;;;4995099;28;20113;-81
2023/04/11 10:34:37;;;;;;;17.73;14.77;;;24.40;31.40;;;;;;4994505;28;20054;-81
2023/04/11 10:37:07;;;;;;;22.67;15.50;;;24.30;32.50;;;;;;4995557;28;20073;-80
2023/04/11 10:39:52;;;;;;;16.65;14.48;;;23.80;33.40;;;;;;4996236;28;20479;-81
2023/04/11 10:42:27;;;;;;;21.48;15.95;;;23.10;34.10;;;;;;4995875;28;20113;-83
2023/04/11 10:45:31;;;;;;;17.45;15.55;;;22.50;35.00;;;;;;4975353;28;20203;-81
2023/04/11 10:48:11;;;;;;;20.25;16.20;;;21.80;35.70;;;;;;4993693;28;20431;-81
2023/04/11 10:50:43;;;;;;;16.05;14.52;;;21.10;36.70;;;;;;4977244;28;20022;-81
2023/04/11 10:53:32;;;;;;;16.25;14.57;;;20.50;37.60;;;;;;4977624;28;20105;-81
2023/04/11 10:56:00;;;;;;;16.60;14.38;;;20.00;38.20;;;;;;4978085;28;20033;-81
2023/04/11 10:58:33;;;;;;;;;;;19.60;38.70;;;;;;4982727;28;20109;-79
2023/04/11 11:00:59;;;;;;;21.77;15.75;;;19.40;38.40;;;;;;4977916;28;19929;-82
2023/04/11 11:03:32;;;;;;;16.80;14.70;;;19.40;39.60;;;;;;4995795;28;20018;-82
2023/04/11 11:06:13;;;;;;;17.50;15.48;;;19.40;39.40;;;;;;5001929;28;20030;-81
2023/04/11 11:08:40;;;;;;;21.15;15.23;;;19.50;39.70;;;;;;5004974;28;20074;-82
2023/04/11 11:11:10;;;;;;;23.20;14.60;;;19.50;39.80;;;;;;5003996;28;20022;-81
2023/04/11 11:13:44;;;;;;;20.30;16.20;;;19.60;39.80;;;;;;4992118;28;20475;-83
2023/04/11 11:16:17;;;;;;;19.67;14.43;;;19.80;39.80;;;;;;5005757;28;20018;-82
2023/04/11 11:19:00;;;;;;;18.48;14.75;;;19.70;39.80;;;;;;5000898;28;20121;-82
2023/04/11 11:21:28;;;;;;;20.55;15.48;;;19.70;39.90;;;;;;4983909;28;20045;-81
2023/04/11 11:23:59;;;;;;;16.25;14.52;;;19.60;39.60;;;;;;4991516;28;20027;-83
2023/04/11 11:26:39;;;;;;;19.30;14.45;;;19.30;39.70;;;;;;4982620;28;20023;-82
2023/04/11 11:29:06;;;;;;;17.42;13.40;;;19.20;40.00;;;;;;5001808;28;20035;-83
2023/04/11 11:31:38;;;;;;;20.67;14.77;;;19.10;40.10;;;;;;5006148;28;20074;-81
2023/04/11 11:34:07;;;;;;;18.17;14.02;;;19.20;40.20;;;;;;4994906;28;20050;-80
2023/04/11 11:36:42;;;;;;;18.30;14.55;;;19.20;40.50;;;;;;5007050;28;20019;-81
2023/04/11 11:39:09;;;;;;;16.83;14.02;;;19.30;41.10;;;;;;4999564;28;20030;-81
2023/04/11 11:41:37;;;;;;;18.42;13.75;;;19.50;40.10;;;;;;4992419;28;20419;-82
2023/04/11 11:44:03;;;;;;;;;;;19.60;40.10;;;;;;5006126;28;20068;-84
2023/04/11 11:46:32;;;;;;;18.25;12.85;;;19.60;39.90;;;;;;4996876;28;19914;-81
2023/04/11 11:49:00;;;;;;;16.70;12.63;;;19.60;39.50;;;;;;4976299;28;20030;-80
2023/04/11 11:51:43;;;;;;;21.75;13.73;;;19.50;39.50;;;;;;4999089;28;20395;-81
2023/04/11 11:54:10;;;;;;;15.57;12.25;;;19.40;39.40;;;;;;4993964;28;20045;-82
2023/04/11 11:56:40;;;;;;;15.43;12.43;;;19.20;39.80;;;;;;5000213;28;20026;-82
2023/04/11 11:59:07;;;;;;;28.23;17.80;;;19.00;39.30;;;;;;5001535;28;20121;-81
2023/04/11 12:01:36;;;;;;;14.60;12.27;;;18.90;39.90;;;;;;4999750;28;20377;-83
2023/04/11 12:04:06;;;;;;;19.00;14.38;;;18.80;39.00;;;;;;4992874;28;20390;-82
2023/04/11 12:06:32;;;;;;;16.48;13.15;;;18.60;39.10;;;;;;5022103;28;20479;-82
2023/04/11 12:09:09;;;;;;;13.85;12.05;;;18.50;38.90;;;;;;5031268;28;20033;-82
2023/04/11 12:11:39;;;;;;;16.17;12.77;;;18.40;39.30;;;;;;5021018;28;20105;-82
2023/04/11 12:14:05;;;;;;;16.17;13.20;;;18.20;39.50;;;;;;5020198;28;20037;-82
2023/04/11 12:16:31;;;;;;;15.15;11.63;;;18.00;39.50;;;;;;5020757;28;20517;-81
2023/04/11 12:19:01;;;;;;;16.67;12.30;;;17.90;40.70;;;;;;4999199;28;20063;-81
2023/04/11 12:21:28;;;;;;;14.05;12.02;;;17.90;40.50;;;;;;5018320;28;20010;-83
2023/04/11 12:23:54;;;;;;;22.33;12.10;;;17.90;40.30;;;;;;5002679;28;20033;-80
2023/04/11 12:26:20;;;;;;;15.73;11.82;;;17.90;40.40;;;;;;5020894;28;20018;-81
2023/04/11 12:28:48;;;;;;;13.40;11.77;;;17.90;40.30;;;;;;5018072;28;20061;-83
2023/04/11 12:31:14;;;;;;;17.05;12.52;;;17.90;40.90;;;;;;5009621;28;20022;-83
2023/04/11 12:33:40;;;;;;;16.50;12.10;;;18.00;40.70;;;;;;5020770;28;20125;-81
2023/04/11 12:36:06;;;;;;;19.92;12.02;;;18.10;40.50;;;;;;5017434;28;20022;-82
2023/04/11 12:38:33;;;;;;;13.70;11.77;;;18.30;40.60;;;;;;5017143;28;20456;-82